sensor_id;sensor_type;location;lat;lon;timestamp;pressure;altitude;pressure_sealevel;temperature;humidity
22775;BME280;11554;51.106;3.684;2022-08-25T00:00:00;101598.97;;;21.79;95.77
22775;BME280;11554;51.106;3.684;2022-08-25T00:05:00;101590.72;;;21.64;96.41
22775;BME280;11554;51.106;3.684;2022-08-25T00:10:00;101586.49;;;21.56;97.63
22775;BME280;11554;51.106;3.684;2022-08-25T00:15:00;101577.39;;;21.47;97.95
22775;BME280;11554;51.106;3.684;2022-08-25T00:20:00;101571.23;;;21.41;98.4
22775;BME280;11554;51.106;3.684;2022-08-25T00:25:00;101564.34000000001;;;21.32;98.76
22775;BME280;11554;51.106;3.684;2022-08-25T00:30:00;101559.81;;;21.23;99.22
22775;BME280;11554;51.106;3.684;2022-08-25T00:35:00;101554.88;;;21.19;100.0
22775;BME280;11554;51.106;3.684;2022-08-25T00:40:00;101555.98;;;21.14;100.0
22775;BME280;11554;51.106;3.684;2022-08-25T00:45:00;101547.96;;;21.03;100.0
22775;BME280;11554;51.106;3.684;2022-08-25T00:50:00;101548.72;;;20.97;100.0
22775;BME280;11554;51.106;3.684;2022-08-25T00:55:02;101542.98999999999;;;20.89;100.0
22775;BME280;11554;51.106;3.684;2022-08-25T01:00:00;101541.88;;;20.70;100.0
22775;BME280;11554;51.106;3.684;2022-08-25T01:05:00;101543.81;;;20.66;100.0
22775;BME280;11554;51.106;3.684;2022-08-25T01:10:00;101548.97;;;20.57;100.0
22775;BME280;11554;51.106;3.684;2022-08-25T01:15:00;101549.86;;;20.47;100.0
22775;BME280;11554;51.106;3.684;2022-08-25T01:20:00;101554.35;;;20.36;100.0
22775;BME280;11554;51.106;3.684;2022-08-25T01:25:01;101554.16;;;20.36;100.0
22775;BME280;11554;51.106;3.684;2022-08-25T01:30:00;101557.05;;;20.30;100.0
22775;BME280;11554;51.106;3.684;2022-08-25T01:35:00;101555.86;;;20.22;100.0
22775;BME280;11554;51.106;3.684;2022-08-25T01:40:00;101550.27;;;19.99;100.0
22775;BME280;11554;51.106;3.684;2022-08-25T01:45:00;101546.78;;;19.89;100.0
22775;BME280;11554;51.106;3.684;2022-08-25T01:50:00;101540.03;;;19.90;100.0
22775;BME280;11554;51.106;3.684;2022-08-25T01:55:00;101534.09;;;19.89;100.0
22775;BME280;11554;51.106;3.684;2022-08-25T02:00:00;101532.36;;;19.98;100.0
22775;BME280;11554;51.106;3.684;2022-08-25T02:05:00;101532.62;;;20.14;100.0
22775;BME280;11554;51.106;3.684;2022-08-25T02:10:00;101537.0;;;20.16;100.0
22775;BME280;11554;51.106;3.684;2022-08-25T02:15:00;101529.16;;;20.09;100.0
22775;BME280;11554;51.106;3.684;2022-08-25T02:20:00;101527.15;;;20.02;100.0
22775;BME280;11554;51.106;3.684;2022-08-25T02:25:00;101526.73999999999;;;19.91;100.0
22775;BME280;11554;51.106;3.684;2022-08-25T02:30:00;101524.49;;;19.89;100.0
22775;BME280;11554;51.106;3.684;2022-08-25T02:35:00;101523.6;;;19.94;100.0
22775;BME280;11554;51.106;3.684;2022-08-25T02:40:00;101512.0;;;19.96;100.0
22775;BME280;11554;51.106;3.684;2022-08-25T02:45:00;101495.94;;;19.99;100.0
22775;BME280;11554;51.106;3.684;2022-08-25T02:50:00;101486.92;;;20.00;100.0
22775;BME280;11554;51.106;3.684;2022-08-25T02:55:00;101480.0;;;19.91;100.0
22775;BME280;11554;51.106;3.684;2022-08-25T03:00:00;101475.62000000001;;;19.80;100.0
22775;BME280;11554;51.106;3.684;2022-08-25T03:05:00;101478.16;;;19.83;100.0
22775;BME280;11554;51.106;3.684;2022-08-25T03:10:03;101473.11;;;19.86;100.0
22775;BME280;11554;51.106;3.684;2022-08-25T03:15:00;101469.34;;;19.84;100.0
22775;BME280;11554;51.106;3.684;2022-08-25T03:20:00;101462.53;;;19.74;100.0
22775;BME280;11554;51.106;3.684;2022-08-25T03:25:00;101455.12999999999;;;19.74;100.0
22775;BME280;11554;51.106;3.684;2022-08-25T03:30:00;101452.69;;;19.78;100.0
22775;BME280;11554;51.106;3.684;2022-08-25T03:35:00;101452.86;;;19.76;100.0
22775;BME280;11554;51.106;3.684;2022-08-25T03:40:00;101453.16;;;19.67;100.0
22775;BME280;11554;51.106;3.684;2022-08-25T03:45:01;101443.48;;;19.45;100.0
22775;BME280;11554;51.106;3.684;2022-08-25T03:50:00;101440.62;;;19.21;100.0
22775;BME280;11554;51.106;3.684;2022-08-25T03:55:00;101447.94;;;19.09;100.0
22775;BME280;11554;51.106;3.684;2022-08-25T04:00:00;101438.71;;;18.96;100.0
22775;BME280;11554;51.106;3.684;2022-08-25T04:05:00;101435.72;;;18.95;100.0
22775;BME280;11554;51.106;3.684;2022-08-25T04:10:00;101430.81;;;19.07;100.0
22775;BME280;11554;51.106;3.684;2022-08-25T04:15:00;101423.27;;;19.09;100.0
22775;BME280;11554;51.106;3.684;2022-08-25T04:20:00;101429.1;;;19.06;100.0
22775;BME280;11554;51.106;3.684;2022-08-25T04:25:00;101431.91;;;19.02;100.0
22775;BME280;11554;51.106;3.684;2022-08-25T04:30:00;101440.05;;;18.99;100.0
22775;BME280;11554;51.106;3.684;2022-08-25T04:35:00;101450.99;;;18.98;100.0
22775;BME280;11554;51.106;3.684;2022-08-25T04:40:00;101451.9;;;18.96;100.0
22775;BME280;11554;51.106;3.684;2022-08-25T04:45:00;101444.34;;;18.94;100.0
22775;BME280;11554;51.106;3.684;2022-08-25T04:50:00;101438.71;;;18.96;100.0
22775;BME280;11554;51.106;3.684;2022-08-25T04:55:00;101439.48000000001;;;18.88;100.0
22775;BME280;11554;51.106;3.684;2022-08-25T05:00:00;101435.83;;;18.92;100.0
22775;BME280;11554;51.106;3.684;2022-08-25T05:05:00;101442.67;;;18.98;100.0
22775;BME280;11554;51.106;3.684;2022-08-25T05:10:00;101440.89;;;18.95;100.0
22775;BME280;11554;51.106;3.684;2022-08-25T05:15:00;101445.4;;;19.02;100.0
22775;BME280;11554;51.106;3.684;2022-08-25T05:20:00;101446.93;;;19.10;100.0
22775;BME280;11554;51.106;3.684;2022-08-25T05:25:00;101443.61;;;19.23;100.0
22775;BME280;11554;51.106;3.684;2022-08-25T05:30:00;101445.98;;;19.41;100.0
22775;BME280;11554;51.106;3.684;2022-08-25T05:35:00;101454.64;;;19.88;100.0
22775;BME280;11554;51.106;3.684;2022-08-25T05:40:00;101452.33;;;20.29;100.0
22775;BME280;11554;51.106;3.684;2022-08-25T05:45:00;101451.78;;;20.45;100.0
22775;BME280;11554;51.106;3.684;2022-08-25T05:50:00;101447.09;;;20.87;100.0
22775;BME280;11554;51.106;3.684;2022-08-25T05:55:00;101452.11;;;21.42;100.0
22775;BME280;11554;51.106;3.684;2022-08-25T06:00:00;101455.94;;;21.72;100.0
22775;BME280;11554;51.106;3.684;2022-08-25T06:05:00;101453.68999999999;;;22.08;100.0
22775;BME280;11554;51.106;3.684;2022-08-25T06:10:00;101450.44;;;23.05;100.0
22775;BME280;11554;51.106;3.684;2022-08-25T06:15:00;101444.84;;;23.62;100.0
22775;BME280;11554;51.106;3.684;2022-08-25T06:20:00;101442.39;;;24.32;97.67
22775;BME280;11554;51.106;3.684;2022-08-25T06:25:00;101429.49;;;24.48;95.96
22775;BME280;11554;51.106;3.684;2022-08-25T06:30:00;101428.7;;;24.98;91.46
22775;BME280;11554;51.106;3.684;2022-08-25T06:35:00;101427.34;;;24.64;87.25
22775;BME280;11554;51.106;3.684;2022-08-25T06:40:00;101429.21;;;24.26;89.35
22775;BME280;11554;51.106;3.684;2022-08-25T06:45:00;101423.41;;;24.54;87.87
22775;BME280;11554;51.106;3.684;2022-08-25T06:50:00;101429.44;;;24.21;87.85
22775;BME280;11554;51.106;3.684;2022-08-25T06:55:00;101432.97;;;24.08;88.76
22775;BME280;11554;51.106;3.684;2022-08-25T07:00:00;101434.95;;;24.01;89.24
22775;BME280;11554;51.106;3.684;2022-08-25T07:05:00;101436.19;;;23.95;88.9
22775;BME280;11554;51.106;3.684;2022-08-25T07:10:00;101441.08;;;24.05;89.5
22775;BME280;11554;51.106;3.684;2022-08-25T07:15:00;101442.72;;;24.17;88.07
22775;BME280;11554;51.106;3.684;2022-08-25T07:20:00;101438.67;;;24.80;88.23
22775;BME280;11554;51.106;3.684;2022-08-25T07:25:00;101439.43000000001;;;25.93;85.74
22775;BME280;11554;51.106;3.684;2022-08-25T07:30:00;101440.36;;;26.55;82.8
22775;BME280;11554;51.106;3.684;2022-08-25T07:35:00;101443.83;;;26.44;77.23
22775;BME280;11554;51.106;3.684;2022-08-25T07:40:01;101442.75;;;26.69;80.28
22775;BME280;11554;51.106;3.684;2022-08-25T07:45:00;101443.11;;;27.03;77.62
22775;BME280;11554;51.106;3.684;2022-08-25T07:50:00;101446.90000000001;;;27.84;75.66
22775;BME280;11554;51.106;3.684;2022-08-25T07:55:00;101444.3;;;28.43;71.17
22775;BME280;11554;51.106;3.684;2022-08-25T08:00:00;101444.61;;;28.55;69.97
22775;BME280;11554;51.106;3.684;2022-08-25T08:05:00;101447.38;;;29.39;69.57
22775;BME280;11554;51.106;3.684;2022-08-25T08:10:00;101446.45000000001;;;30.09;65.31
22775;BME280;11554;51.106;3.684;2022-08-25T08:15:00;101442.6;;;30.61;61.13
22775;BME280;11554;51.106;3.684;2022-08-25T08:20:00;101437.72;;;30.62;57.35
22775;BME280;11554;51.106;3.684;2022-08-25T08:25:00;101433.65;;;30.95;57.92
22775;BME280;11554;51.106;3.684;2022-08-25T08:30:00;101432.04;;;31.22;55.75
22775;BME280;11554;51.106;3.684;2022-08-25T08:35:00;101438.33;;;31.59;56.59
22775;BME280;11554;51.106;3.684;2022-08-25T08:40:00;101435.18000000001;;;31.74;54.85
22775;BME280;11554;51.106;3.684;2022-08-25T08:45:03;101442.25;;;32.06;54.69
22775;BME280;11554;51.106;3.684;2022-08-25T08:50:03;101440.48;;;32.21;54.57
22775;BME280;11554;51.106;3.684;2022-08-25T08:55:00;101443.56;;;32.26;53.41
22775;BME280;11554;51.106;3.684;2022-08-25T09:00:00;101443.18;;;32.68;53.76
22775;BME280;11554;51.106;3.684;2022-08-25T09:05:01;101440.73;;;32.80;54.16
22775;BME280;11554;51.106;3.684;2022-08-25T09:10:00;101439.86;;;32.88;53.92
22775;BME280;11554;51.106;3.684;2022-08-25T09:15:03;101437.28;;;33.23;53.64
22775;BME280;11554;51.106;3.684;2022-08-25T09:20:04;101432.09000000001;;;33.32;52.36
22775;BME280;11554;51.106;3.684;2022-08-25T09:25:01;101432.7;;;33.64;53.52
22775;BME280;11554;51.106;3.684;2022-08-25T09:30:01;101434.95;;;33.93;51.5
22775;BME280;11554;51.106;3.684;2022-08-25T09:35:00;101434.01;;;34.19;48.7
22775;BME280;11554;51.106;3.684;2022-08-25T09:40:00;101435.29;;;34.18;47.05
22775;BME280;11554;51.106;3.684;2022-08-25T09:45:00;101429.49;;;34.39;48.11
22775;BME280;11554;51.106;3.684;2022-08-25T09:50:00;101422.69;;;35.32;46.12
22775;BME280;11554;51.106;3.684;2022-08-25T09:55:13;101424.95;;;35.03;45.84
22775;BME280;11554;51.106;3.684;2022-08-25T10:05:00;101413.98000000001;;;35.26;45.54
22775;BME280;11554;51.106;3.684;2022-08-25T10:10:00;101412.98000000001;;;35.92;45.08
22775;BME280;11554;51.106;3.684;2022-08-25T10:15:03;101406.98;;;36.62;42.57
22775;BME280;11554;51.106;3.684;2022-08-25T10:25:00;101398.0;;;37.17;41.37
22775;BME280;11554;51.106;3.684;2022-08-25T10:30:10;101398.69;;;37.32;41.27
22775;BME280;11554;51.106;3.684;2022-08-25T10:35:01;101400.09999999999;;;37.56;38.2
22775;BME280;11554;51.106;3.684;2022-08-25T10:40:02;101392.11;;;38.25;37.36
22775;BME280;11554;51.106;3.684;2022-08-25T10:45:08;101391.24;;;37.65;39.4
22775;BME280;11554;51.106;3.684;2022-08-25T10:50:01;101386.73999999999;;;36.76;38.19
22775;BME280;11554;51.106;3.684;2022-08-25T10:55:00;101390.66;;;35.98;41.08
22775;BME280;11554;51.106;3.684;2022-08-25T11:00:03;101389.56;;;34.98;43.1
22775;BME280;11554;51.106;3.684;2022-08-25T11:05:01;101391.89;;;34.61;44.28
22775;BME280;11554;51.106;3.684;2022-08-25T11:10:02;101391.76999999999;;;34.31;46.08
22775;BME280;11554;51.106;3.684;2022-08-25T11:15:01;101384.0;;;34.07;45.51
22775;BME280;11554;51.106;3.684;2022-08-25T11:20:03;101390.69;;;34.78;44.78
22775;BME280;11554;51.106;3.684;2022-08-25T11:25:01;101386.27;;;34.71;44.09
22775;BME280;11554;51.106;3.684;2022-08-25T11:30:03;101374.47;;;35.56;44.02
22775;BME280;11554;51.106;3.684;2022-08-25T11:35:00;101374.14;;;35.89;43.63
22775;BME280;11554;51.106;3.684;2022-08-25T11:45:03;101375.17;;;35.23;45.23
22775;BME280;11554;51.106;3.684;2022-08-25T11:50:00;101377.47;;;35.29;46.52
22775;BME280;11554;51.106;3.684;2022-08-25T11:55:04;101378.36;;;34.82;48.13
22775;BME280;11554;51.106;3.684;2022-08-25T12:00:03;101379.14;;;34.35;50.19
22775;BME280;11554;51.106;3.684;2022-08-25T12:05:00;101379.88;;;34.26;51.55
22775;BME280;11554;51.106;3.684;2022-08-25T12:10:09;101378.03;;;34.93;50.93
22775;BME280;11554;51.106;3.684;2022-08-25T12:20:00;101373.29;;;35.32;49.9
22775;BME280;11554;51.106;3.684;2022-08-25T12:25:01;101387.58;;;35.49;49.69
22775;BME280;11554;51.106;3.684;2022-08-25T12:30:00;101381.83;;;35.61;50.13
22775;BME280;11554;51.106;3.684;2022-08-25T12:35:07;101387.41;;;35.87;49.0
22775;BME280;11554;51.106;3.684;2022-08-25T12:40:00;101382.76;;;35.81;49.4
22775;BME280;11554;51.106;3.684;2022-08-25T12:45:10;101381.66;;;35.98;48.7
22775;BME280;11554;51.106;3.684;2022-08-25T12:55:02;101389.20000000001;;;36.20;47.24
22775;BME280;11554;51.106;3.684;2022-08-25T13:00:02;101388.59;;;35.90;47.69
22775;BME280;11554;51.106;3.684;2022-08-25T13:05:02;101393.86;;;36.04;47.84
22775;BME280;11554;51.106;3.684;2022-08-25T13:15:00;101385.94;;;36.05;49.46
22775;BME280;11554;51.106;3.684;2022-08-25T13:25:00;101385.58;;;35.58;51.04
22775;BME280;11554;51.106;3.684;2022-08-25T13:30:00;101385.72;;;35.45;52.17
22775;BME280;11554;51.106;3.684;2022-08-25T13:35:10;101403.24;;;34.67;53.63
22775;BME280;11554;51.106;3.684;2022-08-25T13:40:09;101405.40999999999;;;34.51;54.91
22775;BME280;11554;51.106;3.684;2022-08-25T13:45:00;101403.2;;;35.07;55.25
22775;BME280;11554;51.106;3.684;2022-08-25T13:55:00;101418.47;;;33.82;58.57
22775;BME280;11554;51.106;3.684;2022-08-25T14:00:01;101413.81;;;33.34;58.58
22775;BME280;11554;51.106;3.684;2022-08-25T14:05:00;101418.78;;;33.31;59.77
22775;BME280;11554;51.106;3.684;2022-08-25T14:10:00;101419.05;;;32.24;61.08
22775;BME280;11554;51.106;3.684;2022-08-25T14:15:01;101425.14;;;31.94;61.69
22775;BME280;11554;51.106;3.684;2022-08-25T14:20:00;101430.81;;;32.26;61.05
22775;BME280;11554;51.106;3.684;2022-08-25T14:25:00;101427.29000000001;;;32.29;61.32
22775;BME280;11554;51.106;3.684;2022-08-25T14:30:00;101427.89;;;32.15;61.88
22775;BME280;11554;51.106;3.684;2022-08-25T14:35:00;101430.5;;;31.97;62.04
22775;BME280;11554;51.106;3.684;2022-08-25T14:40:00;101431.12;;;32.07;61.68
22775;BME280;11554;51.106;3.684;2022-08-25T14:45:00;101439.59;;;31.83;62.21
22775;BME280;11554;51.106;3.684;2022-08-25T14:50:00;101439.26;;;31.59;62.9
22775;BME280;11554;51.106;3.684;2022-08-25T14:55:00;101433.78;;;31.72;62.42
22775;BME280;11554;51.106;3.684;2022-08-25T15:00:00;101439.86;;;31.48;63.2
22775;BME280;11554;51.106;3.684;2022-08-25T15:05:00;101442.67;;;31.22;63.62
22775;BME280;11554;51.106;3.684;2022-08-25T15:10:00;101443.19;;;31.56;62.71
22775;BME280;11554;51.106;3.684;2022-08-25T15:15:00;101438.37;;;31.55;62.97
22775;BME280;11554;51.106;3.684;2022-08-25T15:20:00;101439.65;;;31.32;62.86
22775;BME280;11554;51.106;3.684;2022-08-25T15:25:00;101431.95;;;31.35;63.34
22775;BME280;11554;51.106;3.684;2022-08-25T15:30:00;101439.78;;;30.33;66.31
22775;BME280;11554;51.106;3.684;2022-08-25T15:35:00;101434.59;;;30.43;65.92
22775;BME280;11554;51.106;3.684;2022-08-25T15:40:00;101432.14;;;29.96;66.75
22775;BME280;11554;51.106;3.684;2022-08-25T15:45:00;101429.26999999999;;;29.76;68.08
22775;BME280;11554;51.106;3.684;2022-08-25T15:50:02;101431.58;;;30.02;67.26
22775;BME280;11554;51.106;3.684;2022-08-25T15:55:00;101431.64;;;29.80;67.0
22775;BME280;11554;51.106;3.684;2022-08-25T16:00:00;101429.47;;;29.54;68.33
22775;BME280;11554;51.106;3.684;2022-08-25T16:05:00;101426.78;;;29.00;69.57
22775;BME280;11554;51.106;3.684;2022-08-25T16:10:00;101430.35;;;28.56;70.41
22775;BME280;11554;51.106;3.684;2022-08-25T16:15:00;101420.73000000001;;;28.11;71.71
22775;BME280;11554;51.106;3.684;2022-08-25T16:20:00;101422.34;;;28.09;71.33
22775;BME280;11554;51.106;3.684;2022-08-25T16:25:00;101420.62;;;27.60;72.43
22775;BME280;11554;51.106;3.684;2022-08-25T16:30:00;101419.70999999999;;;27.49;73.08
22775;BME280;11554;51.106;3.684;2022-08-25T16:35:00;101423.53;;;27.28;72.87
22775;BME280;11554;51.106;3.684;2022-08-25T16:40:00;101419.19;;;27.16;73.09
22775;BME280;11554;51.106;3.684;2022-08-25T16:45:00;101415.23;;;26.97;73.58
22775;BME280;11554;51.106;3.684;2022-08-25T16:50:00;101420.48;;;26.76;74.52
22775;BME280;11554;51.106;3.684;2022-08-25T16:55:00;101429.92;;;26.53;75.13
22775;BME280;11554;51.106;3.684;2022-08-25T17:00:00;101438.76000000001;;;26.50;75.28
22775;BME280;11554;51.106;3.684;2022-08-25T17:05:00;101430.44;;;26.26;75.94
22775;BME280;11554;51.106;3.684;2022-08-25T17:10:00;101437.3;;;25.94;76.9
22775;BME280;11554;51.106;3.684;2022-08-25T17:15:00;101437.55;;;25.82;76.85
22775;BME280;11554;51.106;3.684;2022-08-25T17:20:00;101441.81999999999;;;25.61;77.25
22775;BME280;11554;51.106;3.684;2022-08-25T17:25:00;101442.58;;;25.32;77.56
22775;BME280;11554;51.106;3.684;2022-08-25T17:30:00;101444.54;;;25.18;78.03
22775;BME280;11554;51.106;3.684;2022-08-25T17:35:00;101464.11;;;24.96;78.06
22775;BME280;11554;51.106;3.684;2022-08-25T17:40:00;101471.53;;;24.81;78.58
22775;BME280;11554;51.106;3.684;2022-08-25T17:45:00;101471.90000000001;;;24.56;79.19
22775;BME280;11554;51.106;3.684;2022-08-25T17:50:00;101482.95000000001;;;24.34;80.3
22775;BME280;11554;51.106;3.684;2022-08-25T17:55:00;101488.86;;;24.09;81.47
22775;BME280;11554;51.106;3.684;2022-08-25T18:00:00;101503.72;;;23.92;82.59
22775;BME280;11554;51.106;3.684;2022-08-25T18:05:00;101515.89;;;23.74;83.66
22775;BME280;11554;51.106;3.684;2022-08-25T18:10:00;101520.37;;;23.55;84.65
22775;BME280;11554;51.106;3.684;2022-08-25T18:15:00;101515.72;;;23.38;85.37
22775;BME280;11554;51.106;3.684;2022-08-25T18:20:00;101506.51000000001;;;23.29;85.31
22775;BME280;11554;51.106;3.684;2022-08-25T18:25:01;101509.63;;;23.11;85.94
22775;BME280;11554;51.106;3.684;2022-08-25T18:30:00;101515.4;;;22.95;86.35
22775;BME280;11554;51.106;3.684;2022-08-25T18:35:00;101513.2;;;22.80;86.55
22775;BME280;11554;51.106;3.684;2022-08-25T18:40:00;101529.24;;;22.70;86.61
22775;BME280;11554;51.106;3.684;2022-08-25T18:45:00;101528.09;;;22.60;86.5
22775;BME280;11554;51.106;3.684;2022-08-25T18:50:00;101537.73;;;22.53;87.08
22775;BME280;11554;51.106;3.684;2022-08-25T18:55:00;101543.17;;;22.40;87.51
22775;BME280;11554;51.106;3.684;2022-08-25T19:00:00;101550.9;;;22.24;88.9
22775;BME280;11554;51.106;3.684;2022-08-25T19:05:00;101550.11;;;22.14;89.88
22775;BME280;11554;51.106;3.684;2022-08-25T19:10:00;101555.05;;;22.05;90.69
22775;BME280;11554;51.106;3.684;2022-08-25T19:15:00;101557.24;;;21.98;91.17
22775;BME280;11554;51.106;3.684;2022-08-25T19:20:00;101565.32999999999;;;21.94;91.06
22775;BME280;11554;51.106;3.684;2022-08-25T19:25:00;101561.94;;;21.86;92.39
22775;BME280;11554;51.106;3.684;2022-08-25T19:30:00;101574.64;;;21.82;92.71
22775;BME280;11554;51.106;3.684;2022-08-25T19:35:00;101579.13;;;21.76;92.65
22775;BME280;11554;51.106;3.684;2022-08-25T19:40:00;101588.7;;;21.71;93.28
22775;BME280;11554;51.106;3.684;2022-08-25T19:45:00;101590.99;;;21.61;93.71
22775;BME280;11554;51.106;3.684;2022-08-25T19:50:00;101587.7;;;21.51;94.53
22775;BME280;11554;51.106;3.684;2022-08-25T19:55:00;101596.65;;;21.40;95.73
22775;BME280;11554;51.106;3.684;2022-08-25T20:00:00;101605.16;;;21.36;95.43
22775;BME280;11554;51.106;3.684;2022-08-25T20:05:00;101611.31;;;21.31;97.38
22775;BME280;11554;51.106;3.684;2022-08-25T20:10:00;101618.89;;;21.26;98.46
22775;BME280;11554;51.106;3.684;2022-08-25T20:15:00;101617.67;;;21.24;99.22
22775;BME280;11554;51.106;3.684;2022-08-25T20:20:00;101615.88;;;21.16;100.0
22775;BME280;11554;51.106;3.684;2022-08-25T20:25:02;101614.29000000001;;;21.10;100.0
22775;BME280;11554;51.106;3.684;2022-08-25T20:30:00;101619.5;;;21.09;100.0
22775;BME280;11554;51.106;3.684;2022-08-25T20:35:00;101624.2;;;21.07;100.0
22775;BME280;11554;51.106;3.684;2022-08-25T20:40:00;101627.03;;;21.03;100.0
22775;BME280;11554;51.106;3.684;2022-08-25T20:45:00;101623.69;;;20.98;100.0
22775;BME280;11554;51.106;3.684;2022-08-25T20:50:00;101625.65;;;20.95;100.0
22775;BME280;11554;51.106;3.684;2022-08-25T20:55:00;101631.15000000001;;;20.89;100.0
22775;BME280;11554;51.106;3.684;2022-08-25T21:00:00;101637.15999999999;;;20.84;100.0
22775;BME280;11554;51.106;3.684;2022-08-25T21:05:00;101640.84;;;20.77;100.0
22775;BME280;11554;51.106;3.684;2022-08-25T21:10:00;101640.69;;;20.72;100.0
22775;BME280;11554;51.106;3.684;2022-08-25T21:15:00;101642.26999999999;;;20.63;100.0
22775;BME280;11554;51.106;3.684;2022-08-25T21:20:00;101646.67;;;20.57;100.0
22775;BME280;11554;51.106;3.684;2022-08-25T21:25:00;101650.03;;;20.53;100.0
22775;BME280;11554;51.106;3.684;2022-08-25T21:30:00;101661.17;;;20.50;100.0
22775;BME280;11554;51.106;3.684;2022-08-25T21:35:00;101650.89;;;20.44;100.0
22775;BME280;11554;51.106;3.684;2022-08-25T21:40:00;101659.45;;;20.40;100.0
22775;BME280;11554;51.106;3.684;2022-08-25T21:45:00;101656.2;;;20.33;100.0
22775;BME280;11554;51.106;3.684;2022-08-25T21:50:00;101655.36;;;20.30;100.0
22775;BME280;11554;51.106;3.684;2022-08-25T21:55:00;101658.08;;;20.26;100.0
22775;BME280;11554;51.106;3.684;2022-08-25T22:00:00;101670.95000000001;;;20.18;100.0
22775;BME280;11554;51.106;3.684;2022-08-25T22:05:00;101683.34999999999;;;20.14;100.0
22775;BME280;11554;51.106;3.684;2022-08-25T22:10:00;101676.93000000001;;;20.07;100.0
22775;BME280;11554;51.106;3.684;2022-08-25T22:15:00;101679.31999999999;;;20.03;99.86
22775;BME280;11554;51.106;3.684;2022-08-25T22:20:00;101671.96;;;19.99;100.0
22775;BME280;11554;51.106;3.684;2022-08-25T22:25:00;101680.33;;;19.98;100.0
22775;BME280;11554;51.106;3.684;2022-08-25T22:30:00;101685.27;;;19.96;100.0
22775;BME280;11554;51.106;3.684;2022-08-25T22:35:00;101695.01000000001;;;19.94;99.79
22775;BME280;11554;51.106;3.684;2022-08-25T22:40:00;101694.03;;;19.92;100.0
22775;BME280;11554;51.106;3.684;2022-08-25T22:45:00;101688.81;;;19.90;100.0
22775;BME280;11554;51.106;3.684;2022-08-25T22:50:00;101687.72;;;19.91;100.0
22775;BME280;11554;51.106;3.684;2022-08-25T22:55:00;101698.29999999999;;;19.88;100.0
22775;BME280;11554;51.106;3.684;2022-08-25T23:00:00;101692.28;;;19.85;100.0
22775;BME280;11554;51.106;3.684;2022-08-25T23:05:00;101695.58;;;19.84;100.0
22775;BME280;11554;51.106;3.684;2022-08-25T23:10:00;101695.59000000001;;;19.86;100.0
22775;BME280;11554;51.106;3.684;2022-08-25T23:15:00;101696.91;;;19.91;100.0
22775;BME280;11554;51.106;3.684;2022-08-25T23:20:00;101690.62;;;19.96;100.0
22775;BME280;11554;51.106;3.684;2022-08-25T23:25:00;101685.5;;;19.95;100.0
22775;BME280;11554;51.106;3.684;2022-08-25T23:30:00;101684.93999999999;;;19.92;100.0
22775;BME280;11554;51.106;3.684;2022-08-25T23:35:00;101687.15999999999;;;19.87;100.0
22775;BME280;11554;51.106;3.684;2022-08-25T23:40:00;101681.98;;;19.83;100.0
22775;BME280;11554;51.106;3.684;2022-08-25T23:45:00;101686.25;;;19.88;100.0
22775;BME280;11554;51.106;3.684;2022-08-25T23:50:00;101679.31999999999;;;19.92;100.0
22775;BME280;11554;51.106;3.684;2022-08-25T23:55:00;101683.54000000001;;;19.92;100.0
